createdAt,value
2017-07-06T00:01:36.920Z,7.20
2017-07-06T00:04:04.338Z,7.33
2017-07-06T00:06:31.762Z,7.10
2017-07-06T00:08:59.945Z,6.60
2017-07-06T00:11:27.457Z,6.73
2017-07-06T00:13:54.860Z,6.67
2017-07-06T00:16:22.327Z,6.60
2017-07-06T00:18:49.746Z,6.23
2017-07-06T00:21:17.161Z,6.40
2017-07-06T00:23:44.575Z,6.00
2017-07-06T00:26:12.755Z,6.30
2017-07-06T00:28:40.347Z,6.57
2017-07-06T00:31:07.755Z,6.80
2017-07-06T00:33:35.927Z,6.27
2017-07-06T00:36:04.109Z,6.23
2017-07-06T00:38:32.283Z,6.30
2017-07-06T00:40:59.778Z,6.83
2017-07-06T00:43:27.224Z,7.33
2017-07-06T00:45:54.667Z,6.90
2017-07-06T00:48:22.083Z,7.00
2017-07-06T00:50:49.504Z,6.70
2017-07-06T00:53:16.921Z,7.57
2017-07-06T00:55:45.100Z,7.10
2017-07-06T00:58:12.516Z,6.90
2017-07-06T01:00:39.937Z,7.40
2017-07-06T01:03:07.355Z,7.50
2017-07-06T01:05:35.536Z,6.97
2017-07-06T01:08:02.943Z,6.27
2017-07-06T01:10:30.372Z,6.80
2017-07-06T01:12:57.788Z,6.87
2017-07-06T01:15:25.984Z,7.20
2017-07-06T01:17:54.157Z,6.80
2017-07-06T01:20:21.578Z,7.47
2017-07-06T01:22:49.043Z,6.73
2017-07-06T01:25:16.452Z,6.70
2017-07-06T01:27:43.867Z,6.50
2017-07-06T01:30:12.052Z,6.93
2017-07-06T01:32:39.465Z,6.20
2017-07-06T01:35:06.880Z,6.90
2017-07-06T01:37:34.296Z,6.27
2017-07-06T01:40:02.478Z,6.83
2017-07-06T01:42:30.655Z,7.13
2017-07-06T01:44:58.845Z,6.33
2017-07-06T01:47:26.266Z,7.30
2017-07-06T01:49:54.460Z,6.60
2017-07-06T01:52:22.650Z,7.07
2017-07-06T01:54:50.062Z,6.30
2017-07-06T01:57:17.473Z,6.93
2017-07-06T01:59:44.881Z,6.40
2017-07-06T02:02:12.296Z,6.77
2017-07-06T02:04:39.703Z,6.63
2017-07-06T02:07:07.885Z,6.63
2017-07-06T02:09:36.055Z,6.63
2017-07-06T02:12:04.235Z,6.90
2017-07-06T02:14:31.655Z,6.20
2017-07-06T02:16:59.160Z,6.47
2017-07-06T02:19:26.568Z,6.53
2017-07-06T02:21:53.987Z,6.80
2017-07-06T02:24:21.408Z,7.13
2017-07-06T02:26:49.588Z,6.50
2017-07-06T02:29:17.012Z,7.20
2017-07-06T02:31:44.531Z,6.67
2017-07-06T02:34:11.927Z,6.60
2017-07-06T02:36:39.336Z,6.60
2017-07-06T02:39:06.760Z,6.07
2017-07-06T02:41:34.996Z,7.17
2017-07-06T02:44:02.395Z,7.17
2017-07-06T02:46:30.572Z,7.13
2017-07-06T02:48:58.056Z,7.23
2017-07-06T02:51:25.468Z,7.30
2017-07-06T02:53:53.644Z,7.70
2017-07-06T02:56:21.829Z,7.47
2017-07-06T02:58:50.004Z,7.70
2017-07-06T03:01:17.411Z,7.47
2017-07-06T03:03:44.948Z,7.93
2017-07-06T03:06:12.359Z,8.90
2017-07-06T03:08:40.542Z,8.00
2017-07-06T03:11:08.723Z,7.70
2017-07-06T03:13:36.136Z,8.47
2017-07-06T03:16:04.347Z,8.50
2017-07-06T03:18:32.527Z,7.97
2017-07-06T03:20:59.939Z,8.53
2017-07-06T03:23:27.367Z,8.23
2017-07-06T03:25:54.779Z,8.17
2017-07-06T03:28:22.952Z,8.30
2017-07-06T03:30:51.142Z,8.73
2017-07-06T03:33:18.563Z,8.83
2017-07-06T03:35:45.983Z,7.83
2017-07-06T03:38:13.395Z,9.07
2017-07-06T03:40:41.581Z,8.40
2017-07-06T03:43:08.996Z,9.50
2017-07-06T03:45:36.412Z,8.27
2017-07-06T03:48:03.831Z,8.10
2017-07-06T03:50:32.016Z,9.03
2017-07-06T03:53:00.187Z,9.13
2017-07-06T03:55:27.605Z,9.20
2017-07-06T03:57:55.019Z,8.57
2017-07-06T04:00:22.432Z,9.20
2017-07-06T04:02:49.847Z,8.80
2017-07-06T04:05:17.259Z,9.20
2017-07-06T04:07:45.443Z,9.00
2017-07-06T04:10:12.867Z,9.53
2017-07-06T04:12:40.284Z,9.43
2017-07-06T04:15:07.704Z,9.63
2017-07-06T04:17:35.903Z,10.47
2017-07-06T04:20:03.311Z,9.80
2017-07-06T04:22:30.819Z,9.93
2017-07-06T04:24:58.255Z,10.10
2017-07-06T04:27:25.667Z,11.40
2017-07-06T04:29:53.089Z,11.00
2017-07-06T04:32:20.500Z,11.30
2017-07-06T04:34:48.688Z,11.20
2017-07-06T04:37:16.879Z,11.70
2017-07-06T04:39:44.297Z,10.47
2017-07-06T04:42:11.724Z,11.47
2017-07-06T04:44:39.135Z,11.23
2017-07-06T04:47:06.560Z,9.80
2017-07-06T04:49:34.741Z,10.00
2017-07-06T04:52:02.987Z,10.13
2017-07-06T04:54:30.400Z,10.40
2017-07-06T04:56:57.824Z,10.60
2017-07-06T04:59:25.236Z,10.30
2017-07-06T05:01:52.660Z,10.43
2017-07-06T05:04:20.077Z,11.80
2017-07-06T05:06:47.500Z,9.73
2017-07-06T05:09:14.915Z,10.10
2017-07-06T05:11:43.130Z,9.43
2017-07-06T05:14:10.539Z,10.27
2017-07-06T05:16:38.724Z,9.90
2017-07-06T05:19:06.943Z,10.33
2017-07-06T05:21:34.358Z,11.20
2017-07-06T05:24:01.784Z,10.90
2017-07-06T05:26:29.208Z,11.30
2017-07-06T05:28:56.627Z,10.60
2017-07-06T05:31:24.076Z,10.93
2017-07-06T05:33:52.464Z,10.50
2017-07-06T05:36:19.884Z,10.53
2017-07-06T05:38:47.306Z,11.73
2017-07-06T05:41:14.761Z,12.80
2017-07-06T05:43:42.185Z,12.83
2017-07-06T05:46:09.613Z,13.00
2017-07-06T05:48:37.035Z,16.33
2017-07-06T05:51:04.452Z,15.53
2017-07-06T05:53:31.872Z,14.20
2017-07-06T05:55:59.288Z,18.70
2017-07-06T05:58:26.702Z,9.90
2017-07-06T06:00:54.894Z,11.37
2017-07-06T06:03:22.325Z,11.63
2017-07-06T06:05:50.521Z,10.30
2017-07-06T06:08:17.931Z,10.50
2017-07-06T06:10:45.347Z,11.10
2017-07-06T06:13:12.768Z,10.63
2017-07-06T06:15:40.948Z,15.37
2017-07-06T06:18:09.128Z,11.20
2017-07-06T06:20:37.320Z,10.80
2017-07-06T06:23:04.729Z,11.17
2017-07-06T06:25:32.151Z,10.33
2017-07-06T06:27:59.571Z,11.00
2017-07-06T06:30:27.764Z,10.20
2017-07-06T06:32:55.191Z,9.97
2017-07-06T06:35:23.373Z,10.23
2017-07-06T06:37:51.556Z,10.87
2017-07-06T06:40:18.967Z,10.07
2017-07-06T06:42:46.389Z,10.57
2017-07-06T06:45:13.807Z,10.80
2017-07-06T06:47:41.995Z,10.97
2017-07-06T06:50:09.408Z,9.83
2017-07-06T06:52:36.827Z,10.13
2017-07-06T06:55:04.248Z,10.40
2017-07-06T06:57:32.456Z,11.20
2017-07-06T06:59:59.863Z,13.53
2017-07-06T07:02:27.291Z,15.07
2017-07-06T07:04:54.701Z,11.80
2017-07-06T07:07:22.112Z,10.00
2017-07-06T07:09:49.543Z,10.50
2017-07-06T07:12:16.980Z,9.43
2017-07-06T07:14:44.387Z,11.00
2017-07-06T07:17:11.800Z,9.17
2017-07-06T07:19:39.223Z,10.20
2017-07-06T07:22:06.640Z,9.57
2017-07-06T07:24:34.074Z,8.50
2017-07-06T07:27:01.486Z,8.53
2017-07-06T07:29:30.235Z,8.60
2017-07-06T07:31:57.739Z,9.00
2017-07-06T07:34:25.159Z,8.40
2017-07-06T07:36:52.577Z,8.67
2017-07-06T07:39:19.990Z,9.10
2017-07-06T07:41:48.166Z,9.40
2017-07-06T07:44:15.579Z,8.87
2017-07-06T07:46:42.997Z,8.60
2017-07-06T07:49:10.404Z,9.70
2017-07-06T07:51:37.820Z,9.27
2017-07-06T07:54:05.239Z,8.40
2017-07-06T07:56:33.419Z,9.10
2017-07-06T07:59:01.612Z,8.23
2017-07-06T08:01:29.028Z,8.40
2017-07-06T08:03:56.439Z,8.70
2017-07-06T08:06:23.963Z,8.30
2017-07-06T08:08:52.182Z,8.30
2017-07-06T08:11:19.600Z,7.30
2017-07-06T08:13:47.796Z,7.30
2017-07-06T08:16:15.217Z,7.63
2017-07-06T08:21:06.560Z,7.10
2017-07-06T08:23:34.757Z,7.00
2017-07-06T08:26:02.337Z,7.50
2017-07-06T08:28:29.758Z,6.97
2017-07-06T08:30:57.249Z,7.07
2017-07-06T08:33:24.755Z,8.93
2017-07-06T08:35:54.038Z,8.33
2017-07-06T08:38:21.473Z,9.20
2017-07-06T08:40:48.950Z,9.00
2017-07-06T08:43:16.395Z,8.67
2017-07-06T08:45:44.207Z,8.00
2017-07-06T08:48:11.629Z,10.50
2017-07-06T08:50:39.060Z,8.27
2017-07-06T08:53:06.498Z,8.80
2017-07-06T08:55:34.002Z,7.83
2017-07-06T08:58:02.197Z,8.53
2017-07-06T09:00:29.729Z,9.30
2017-07-06T09:02:57.157Z,8.40
2017-07-06T09:05:24.576Z,8.50
2017-07-06T09:07:52.005Z,8.60
2017-07-06T09:10:20.307Z,8.07
2017-07-06T09:12:47.721Z,8.30
2017-07-06T09:15:15.165Z,7.70
2017-07-06T09:17:42.583Z,7.23
2017-07-06T09:20:10.096Z,7.30
2017-07-06T09:22:37.523Z,7.03
2017-07-06T09:25:04.966Z,7.87
2017-07-06T09:27:32.391Z,7.00
2017-07-06T09:29:59.829Z,8.03
2017-07-06T09:32:27.254Z,7.90
2017-07-06T09:34:54.670Z,6.80
2017-07-06T09:37:22.092Z,7.27
2017-07-06T09:39:50.351Z,7.60
2017-07-06T09:42:17.783Z,7.87
2017-07-06T09:44:45.212Z,7.20
2017-07-06T09:47:12.645Z,8.50
2017-07-06T09:49:40.821Z,7.30
2017-07-06T09:52:08.264Z,9.00
2017-07-06T09:54:36.529Z,7.30
2017-07-06T09:57:03.953Z,7.63
2017-07-06T09:59:31.387Z,7.10
2017-07-06T10:01:58.843Z,7.37
2017-07-06T10:04:26.357Z,7.77
2017-07-06T10:06:53.781Z,8.10
2017-07-06T10:09:21.404Z,7.63
2017-07-06T10:11:48.828Z,7.73
2017-07-06T10:14:16.288Z,8.00
2017-07-06T10:16:44.562Z,8.50
2017-07-06T10:19:12.822Z,8.30
2017-07-06T10:21:40.276Z,7.50
2017-07-06T10:24:07.698Z,7.87
2017-07-06T10:26:35.193Z,8.07
2017-07-06T10:29:02.616Z,8.23
2017-07-06T10:31:30.110Z,7.93
2017-07-06T10:33:57.537Z,8.77
2017-07-06T10:36:24.962Z,8.17
2017-07-06T10:38:52.394Z,8.93
2017-07-06T10:41:20.602Z,9.17
2017-07-06T10:43:48.124Z,8.40
2017-07-06T10:46:16.321Z,8.23
2017-07-06T10:48:43.745Z,7.73
2017-07-06T10:51:11.169Z,8.80
2017-07-06T10:53:38.602Z,8.43
2017-07-06T10:56:06.111Z,9.47
2017-07-06T10:58:33.545Z,10.03
2017-07-06T11:01:00.977Z,9.57
2017-07-06T11:03:28.420Z,8.43
2017-07-06T11:05:55.886Z,8.60
2017-07-06T11:08:23.302Z,9.40
2017-07-06T11:10:51.504Z,8.70
2017-07-06T11:13:18.932Z,9.77
2017-07-06T11:15:47.192Z,9.27
2017-07-06T11:18:14.613Z,8.40
2017-07-06T11:20:42.081Z,9.50
2017-07-06T11:23:09.498Z,9.80
2017-07-06T11:25:36.935Z,8.13
2017-07-06T11:28:05.190Z,8.57
2017-07-06T11:30:32.610Z,8.23
2017-07-06T11:33:00.104Z,8.73
2017-07-06T11:35:27.511Z,8.77
2017-07-06T11:37:54.946Z,9.80
2017-07-06T11:40:22.363Z,9.67
2017-07-06T11:42:49.790Z,8.40
2017-07-06T11:45:17.216Z,8.97
2017-07-06T11:47:44.644Z,9.60
2017-07-06T11:50:12.085Z,8.30
2017-07-06T11:52:39.609Z,8.30
2017-07-06T11:55:07.034Z,8.60
2017-07-06T11:57:34.466Z,9.30
2017-07-06T12:00:02.760Z,8.27
2017-07-06T12:02:30.258Z,8.50
2017-07-06T12:04:57.924Z,8.17
2017-07-06T12:07:25.405Z,7.83
2017-07-06T12:09:52.825Z,8.30
2017-07-06T12:12:20.256Z,8.70
2017-07-06T12:14:47.735Z,6.93
2017-07-06T12:17:15.141Z,7.97
2017-07-06T12:19:43.376Z,8.07
2017-07-06T12:22:10.962Z,7.37
2017-07-06T12:24:38.381Z,8.10
2017-07-06T12:27:05.805Z,8.13
2017-07-06T12:29:33.239Z,7.93
2017-07-06T12:32:00.682Z,8.10
2017-07-06T12:34:28.205Z,7.60
2017-07-06T12:36:55.677Z,7.20
2017-07-06T12:39:23.138Z,8.13
2017-07-06T12:41:50.566Z,7.20
2017-07-06T12:44:18.047Z,7.87
2017-07-06T12:46:45.475Z,7.03
2017-07-06T12:49:12.948Z,7.20
2017-07-06T12:51:40.441Z,8.40
2017-07-06T12:54:07.897Z,6.40
2017-07-06T12:56:35.422Z,7.07
2017-07-06T12:59:02.909Z,6.37
2017-07-06T13:01:30.337Z,6.50
2017-07-06T13:03:57.793Z,6.57
2017-07-06T13:06:25.278Z,6.23
2017-07-06T13:08:52.701Z,6.67
2017-07-06T13:11:20.203Z,6.47
2017-07-06T13:13:47.602Z,6.70
2017-07-06T13:16:15.025Z,6.47
2017-07-06T13:18:43.252Z,6.47
2017-07-06T13:21:10.668Z,6.87
2017-07-06T13:23:38.145Z,6.27
2017-07-06T13:26:05.548Z,6.90
2017-07-06T13:28:32.974Z,6.23
2017-07-06T13:31:00.457Z,6.90
2017-07-06T13:33:27.973Z,6.30
2017-07-06T13:35:55.432Z,5.70
2017-07-06T13:38:22.848Z,6.20
2017-07-06T13:40:50.273Z,5.60
2017-07-06T13:43:17.849Z,6.30
2017-07-06T13:45:45.263Z,5.70
2017-07-06T13:48:12.717Z,5.10
2017-07-06T13:50:40.181Z,6.27
2017-07-06T13:53:07.620Z,6.63
2017-07-06T13:55:35.050Z,5.77
2017-07-06T13:58:02.469Z,5.73
2017-07-06T14:00:30.049Z,6.03
2017-07-06T14:02:58.272Z,5.00
2017-07-06T14:05:25.705Z,5.00
2017-07-06T14:07:53.122Z,4.83
2017-07-06T14:10:20.545Z,5.80
2017-07-06T14:12:47.974Z,5.60
2017-07-06T14:15:15.401Z,5.20
2017-07-06T14:17:42.824Z,5.67
2017-07-06T14:20:10.267Z,5.60
2017-07-06T14:22:37.705Z,4.90
2017-07-06T14:25:05.156Z,5.20
2017-07-06T14:27:32.579Z,5.07
2017-07-06T14:29:59.998Z,5.77
2017-07-06T14:32:27.422Z,5.00
2017-07-06T14:34:54.837Z,5.33
2017-07-06T14:37:22.262Z,5.33
2017-07-06T14:39:49.683Z,5.33
2017-07-06T14:42:17.664Z,5.00
2017-07-06T14:44:45.063Z,5.27
2017-07-06T14:47:12.540Z,5.33
2017-07-06T14:49:39.997Z,5.70
2017-07-06T14:52:07.447Z,5.40
2017-07-06T14:54:34.853Z,5.30
2017-07-06T14:57:02.280Z,6.00
2017-07-06T14:59:29.713Z,5.93
2017-07-06T15:01:57.157Z,5.30
2017-07-06T15:04:24.586Z,5.00
2017-07-06T15:06:52.071Z,5.10
2017-07-06T15:09:19.560Z,5.60
2017-07-06T15:11:46.984Z,5.20
2017-07-06T15:14:14.416Z,4.90
2017-07-06T15:16:41.841Z,5.30
2017-07-06T15:19:09.351Z,7.10
2017-07-06T15:21:36.784Z,6.30
2017-07-06T15:24:04.198Z,5.60
2017-07-06T15:26:31.721Z,5.93
2017-07-06T15:28:59.169Z,6.23
2017-07-06T15:31:26.609Z,6.13
2017-07-06T15:33:54.091Z,6.60
2017-07-06T15:36:21.515Z,6.20
2017-07-06T15:38:48.937Z,6.33
2017-07-06T15:41:16.358Z,6.00
2017-07-06T15:43:43.817Z,7.07
2017-07-06T15:46:11.264Z,6.80
2017-07-06T15:48:38.690Z,6.30
2017-07-06T15:51:06.114Z,7.37
2017-07-06T15:53:34.311Z,10.73
2017-07-06T15:56:01.809Z,9.00
2017-07-06T15:58:29.246Z,6.97
2017-07-06T16:00:56.662Z,7.50
2017-07-06T16:03:24.853Z,7.33
2017-07-06T16:05:52.280Z,7.07
2017-07-06T16:08:19.711Z,7.33
2017-07-06T16:10:47.125Z,7.50
2017-07-06T16:13:14.566Z,6.87
2017-07-06T16:15:41.986Z,7.13
2017-07-06T16:18:09.625Z,7.43
2017-07-06T16:20:37.040Z,7.10
2017-07-06T16:23:05.228Z,8.90
2017-07-06T16:25:32.654Z,8.03
2017-07-06T16:28:00.086Z,7.23
2017-07-06T16:30:27.501Z,6.40
2017-07-06T16:32:54.934Z,6.73
2017-07-06T16:35:23.156Z,7.37
2017-07-06T16:37:50.585Z,8.93
2017-07-06T16:40:18.005Z,8.10
2017-07-06T16:42:45.432Z,7.83
2017-07-06T16:45:13.629Z,9.37
2017-07-06T16:47:41.116Z,7.93
2017-07-06T16:50:08.566Z,8.83
2017-07-06T16:52:36.021Z,8.13
2017-07-06T16:55:03.453Z,8.07
2017-07-06T16:57:30.929Z,7.37
2017-07-06T16:59:58.345Z,7.73
2017-07-06T17:02:26.541Z,8.10
2017-07-06T17:04:53.969Z,9.00
2017-07-06T17:07:21.497Z,8.50
2017-07-06T17:09:48.912Z,9.40
2017-07-06T17:12:16.339Z,9.33
2017-07-06T17:14:43.756Z,7.57
2017-07-06T17:17:11.181Z,7.70
2017-07-06T17:19:38.758Z,8.10
2017-07-06T17:22:06.225Z,7.30
2017-07-06T17:24:33.648Z,8.37
2017-07-06T17:27:01.079Z,7.93
2017-07-06T17:29:29.303Z,9.17
2017-07-06T17:31:56.710Z,10.67
2017-07-06T17:34:24.907Z,9.60
2017-07-06T17:36:52.321Z,8.90
2017-07-06T17:39:19.753Z,8.83
2017-07-06T17:41:47.177Z,7.47
2017-07-06T17:44:14.592Z,9.47
2017-07-06T17:46:42.128Z,8.53
2017-07-06T17:49:09.575Z,8.40
2017-07-06T17:51:36.994Z,9.53
2017-07-06T17:54:04.426Z,8.30
2017-07-06T17:56:31.846Z,7.77
2017-07-06T17:58:59.273Z,8.63
2017-07-06T18:01:26.695Z,8.57
2017-07-06T18:03:54.917Z,8.60
2017-07-06T18:06:22.344Z,8.20
2017-07-06T18:08:49.796Z,8.87
2017-07-06T18:11:17.213Z,9.70
2017-07-06T18:13:44.642Z,9.40
2017-07-06T18:16:12.073Z,8.70
2017-07-06T18:18:39.497Z,9.03
2017-07-06T18:21:07.697Z,8.40
2017-07-06T18:23:35.134Z,8.57
2017-07-06T18:26:03.344Z,8.30
2017-07-06T18:28:30.814Z,8.97
2017-07-06T18:30:58.286Z,9.90
2017-07-06T18:33:25.702Z,9.67
2017-07-06T18:35:53.136Z,8.80
2017-07-06T18:38:21.313Z,8.93
2017-07-06T18:40:48.821Z,8.40
2017-07-06T18:43:16.241Z,8.80
2017-07-06T18:45:43.662Z,8.50
2017-07-06T18:48:11.850Z,8.97
2017-07-06T18:50:40.051Z,9.30
2017-07-06T18:53:07.481Z,10.10
2017-07-06T18:55:35.665Z,8.97
2017-07-06T18:58:03.096Z,9.43
2017-07-06T19:00:31.323Z,10.20
2017-07-06T19:02:58.746Z,10.00
2017-07-06T19:05:26.165Z,9.67
2017-07-06T19:07:53.596Z,10.67
2017-07-06T19:10:21.021Z,11.37
2017-07-06T19:12:48.452Z,9.70
2017-07-06T19:15:15.925Z,9.17
2017-07-06T19:17:43.393Z,9.60
2017-07-06T19:20:10.820Z,9.97
2017-07-06T19:22:38.268Z,9.50
2017-07-06T19:25:06.454Z,9.93
2017-07-06T19:27:33.877Z,9.43
2017-07-06T19:30:01.315Z,10.40
2017-07-06T19:32:29.516Z,9.47
2017-07-06T19:34:56.947Z,9.50
2017-07-06T19:37:24.380Z,9.77
2017-07-06T19:39:51.813Z,10.43
2017-07-06T19:42:19.245Z,9.77
2017-07-06T19:44:46.698Z,10.90
2017-07-06T19:47:14.113Z,9.40
2017-07-06T19:49:41.538Z,10.20
2017-07-06T19:52:08.970Z,10.07
2017-07-06T19:54:36.393Z,11.27
2017-07-06T19:57:04.594Z,10.50
2017-07-06T19:59:32.023Z,11.40
2017-07-06T20:01:59.457Z,11.80
2017-07-06T20:04:26.884Z,9.80
2017-07-06T20:06:54.318Z,10.10
2017-07-06T20:09:21.809Z,9.97
2017-07-06T20:11:49.242Z,10.50
2017-07-06T20:14:16.669Z,10.80
2017-07-06T20:16:44.873Z,11.03
2017-07-06T20:19:12.300Z,11.13
2017-07-06T20:21:39.739Z,11.70
2017-07-06T20:24:07.170Z,11.70
2017-07-06T20:26:34.601Z,11.77
2017-07-06T20:29:02.036Z,11.60
2017-07-06T20:31:29.458Z,11.67
2017-07-06T20:33:56.886Z,11.83
2017-07-06T20:36:24.314Z,11.37
2017-07-06T20:38:51.748Z,11.90
2017-07-06T20:41:19.951Z,11.23
2017-07-06T20:43:47.361Z,11.90
2017-07-06T20:46:15.555Z,10.90
2017-07-06T20:48:43.009Z,11.40
2017-07-06T20:51:10.444Z,11.80
2017-07-06T20:53:38.639Z,11.20
2017-07-06T20:56:06.073Z,11.33
2017-07-06T20:58:34.270Z,11.73
2017-07-06T21:01:01.688Z,12.57
2017-07-06T21:03:29.131Z,11.90
2017-07-06T21:05:56.555Z,10.57
2017-07-06T21:08:23.992Z,10.27
2017-07-06T21:10:51.503Z,10.00
2017-07-06T21:13:19.052Z,10.60
2017-07-06T21:15:46.485Z,10.90
2017-07-06T21:18:13.928Z,10.40
2017-07-06T21:20:41.344Z,13.30
2017-07-06T21:23:08.776Z,11.80
2017-07-06T21:25:36.207Z,11.87
2017-07-06T21:28:03.644Z,12.40
2017-07-06T21:30:31.142Z,12.30
2017-07-06T21:32:58.579Z,13.50
2017-07-06T21:35:26.010Z,14.07
2017-07-06T21:37:53.428Z,14.13
2017-07-06T21:40:20.860Z,13.90
2017-07-06T21:42:48.296Z,14.03
2017-07-06T21:45:15.720Z,13.23
2017-07-06T21:47:43.926Z,12.23
2017-07-06T21:50:11.344Z,13.00
2017-07-06T21:52:38.785Z,12.40
2017-07-06T21:55:06.209Z,14.33
2017-07-06T21:57:33.641Z,12.50
2017-07-06T22:00:01.074Z,13.53
2017-07-06T22:02:29.266Z,13.70
2017-07-06T22:04:56.843Z,12.90
2017-07-06T22:07:24.245Z,13.00
2017-07-06T22:09:51.680Z,14.10
2017-07-06T22:12:19.109Z,11.73
2017-07-06T22:14:46.534Z,13.53
2017-07-06T22:17:14.033Z,12.53
2017-07-06T22:19:41.464Z,11.47
2017-07-06T22:22:08.897Z,12.03
2017-07-06T22:24:37.093Z,12.53
2017-07-06T22:27:04.517Z,11.60
2017-07-06T22:29:32.707Z,11.50
2017-07-06T22:32:00.153Z,11.47
2017-07-06T22:34:28.341Z,12.00
2017-07-06T22:36:55.769Z,10.80
2017-07-06T22:39:23.196Z,12.67
2017-07-06T22:41:50.641Z,12.10
2017-07-06T22:44:18.062Z,12.90
2017-07-06T22:46:45.505Z,12.23
2017-07-06T22:49:13.693Z,12.40
2017-07-06T22:51:41.133Z,13.27
2017-07-06T22:54:09.321Z,13.40
2017-07-06T22:56:36.753Z,12.50
2017-07-06T22:59:05.086Z,12.33
2017-07-06T23:01:32.512Z,12.57
2017-07-06T23:03:59.945Z,12.07
2017-07-06T23:06:28.141Z,12.77
2017-07-06T23:08:55.565Z,12.27
2017-07-06T23:11:22.989Z,12.77
2017-07-06T23:13:50.437Z,14.87
2017-07-06T23:16:17.871Z,14.20
2017-07-06T23:18:45.299Z,12.60
2017-07-06T23:21:12.773Z,12.93
2017-07-06T23:23:40.209Z,13.13
2017-07-06T23:26:07.642Z,12.60
2017-07-06T23:28:35.077Z,12.80
2017-07-06T23:31:02.511Z,12.67
2017-07-06T23:33:29.934Z,13.03
2017-07-06T23:35:57.370Z,12.50
2017-07-06T23:38:24.797Z,12.07
2017-07-06T23:40:52.221Z,13.23
2017-07-06T23:43:19.649Z,13.50
2017-07-06T23:45:47.074Z,14.40
2017-07-06T23:48:15.269Z,14.00
2017-07-06T23:50:42.697Z,14.30
2017-07-06T23:53:10.926Z,13.40
2017-07-06T23:55:38.338Z,14.13
2017-07-06T23:58:06.530Z,13.97
